Airfield :
LOGIN :

Register | Disclaimer

   EN    FR    IT 

 










Legend :    VFR   Marginal VFR   IFR   Intensive IFR   Very Intensive IFR
Visi :
Ceiling :
>= 8 km
>= 3000ft
5 to 8 km
1000 to 3000 ft
1500m to 5 km
500 to 1000 ft
800 to 1500m
200 to 500 ft
< 800m
< 200 ft
Symbols :   Thunderstorms  Fog  Heavy snow  Heavy precipitations  Wind > 20 kt
SIGMETs :     Misc.  Thunderstorms  Icing  Turbulence  Mountain Waves  Volcanic Ashes






- Airport Elevation : 115 ft
- IATA code : HER


LGIR - Nikos Kazantzakis

CURRENT METAR :
  • 040450Z 17009KT 9999 FEW025 SCT080 15/12 Q1012 NOSIG

EXPIRED METARs :
  • 040420Z 19010KT 9999 FEW025 SCT080 13/11 Q1012 NOSIG
  • 040350Z 19006KT 9999 FEW025 SCT080 13/11 Q1012 NOSIG
  • 040320Z 00000KT 9999 FEW025 SCT080 13/12 Q1012 NOSIG
  • 040250Z 00000KT 9999 FEW025 SCT080 13/12 Q1012 NOSIG
  • 040220Z 00000KT 9999 FEW025 SCT080 14/12 Q1013 NOSIG

TAF TAF LGIR
Valid from the 04 at 00:00 until the 05 at 00:00 UTC


032300Z 0400/0424 18015G25KT 9999 FEW025 SCT080
PROB30
TEMPO 0400/0424 5000 RA FEW018TCU BKN025 BKN070
PROB30
TEMPO 0403/0415 4000 TSRA SCT015 FEW018CB BKN050
BECMG 0419/0421 19015KT



MET'MAP, your aeronautical weather chart ! - Copyright ORBIFLY December 2007 - Disclaimer

ORBIFLY MET'MAP TEAM :

Programming & Development : Alexandra Zaïnal
Concept & original design : Baudouin d'Aumeries
Assistance for programming : Marc-Olivier Méhu
Technical & hardware support : Manuel Goepfert

Contact : metmap@orbifly.com




SOURCES & CREDITS :

   NOAA